createdAt,value
2018-06-21T00:02:13.021Z,95563.14
2018-06-21T00:04:44.716Z,95566.52
2018-06-21T00:07:15.687Z,95564.60
2018-06-21T00:09:46.036Z,95567.39
2018-06-21T00:12:16.670Z,95562.65
2018-06-21T00:14:47.154Z,95568.20
2018-06-21T00:17:18.565Z,95562.36
2018-06-21T00:19:50.069Z,95557.97
2018-06-21T00:22:20.959Z,95560.24
2018-06-21T00:24:51.756Z,95563.89
2018-06-21T00:27:22.324Z,95558.11
2018-06-21T00:29:52.771Z,95566.91
2018-06-21T00:32:23.736Z,95566.09
2018-06-21T00:34:54.360Z,95565.11
2018-06-21T00:37:25.300Z,95572.91
2018-06-21T00:39:55.780Z,95568.97
2018-06-21T00:42:27.912Z,95566.77
2018-06-21T00:44:58.438Z,95568.39
2018-06-21T00:47:29.014Z,95564.52
2018-06-21T00:50:01.036Z,95546.15
2018-06-21T00:52:32.376Z,95557.70
2018-06-21T00:55:03.241Z,95561.18
2018-06-21T00:57:33.945Z,95562.85
2018-06-21T01:00:06.188Z,95565.44
2018-06-21T01:02:36.775Z,95570.94
2018-06-21T01:05:08.024Z,95570.05
2018-06-21T01:07:38.942Z,95567.06
2018-06-21T01:10:09.636Z,95575.03
2018-06-21T01:12:41.440Z,95566.42
2018-06-21T01:15:12.256Z,95570.48
2018-06-21T01:17:42.822Z,95565.80
2018-06-21T01:20:13.861Z,95565.44
2018-06-21T01:22:44.750Z,95573.41
2018-06-21T01:25:15.490Z,95574.11
2018-06-21T01:27:47.505Z,95572.37
2018-06-21T01:30:18.817Z,95571.75
2018-06-21T01:32:49.254Z,95571.05
2018-06-21T01:35:19.971Z,95569.50
2018-06-21T01:37:50.687Z,95571.23
2018-06-21T01:40:21.965Z,95570.87
2018-06-21T01:42:52.973Z,95566.66
2018-06-21T01:45:24.039Z,95565.11
2018-06-21T01:47:54.472Z,95561.52
2018-06-21T01:50:26.087Z,95558.94
2018-06-21T01:52:58.276Z,95556.38
2018-06-21T01:55:28.654Z,95552.62
2018-06-21T01:57:59.517Z,95550.48
2018-06-21T02:00:30.319Z,95548.34
2018-06-21T02:03:01.734Z,95551.74
2018-06-21T02:05:32.482Z,95547.28
2018-06-21T02:08:03.757Z,95545.38
2018-06-21T02:10:35.246Z,95548.77
2018-06-21T02:13:07.307Z,95550.47
2018-06-21T02:15:37.940Z,95548.03
2018-06-21T02:18:09.078Z,95541.87
2018-06-21T02:20:40.117Z,95553.96
2018-06-21T02:23:10.987Z,95552.52
2018-06-21T02:25:41.414Z,95561.00
2018-06-21T02:28:12.220Z,95562.45
2018-06-21T02:30:43.256Z,95555.98
2018-06-21T02:33:13.752Z,95557.27
2018-06-21T02:35:44.979Z,95551.06
2018-06-21T02:38:15.456Z,95556.13
2018-06-21T02:40:47.220Z,95552.13
2018-06-21T02:43:18.150Z,95554.78
2018-06-21T02:45:48.928Z,95549.65
2018-06-21T02:48:19.644Z,95552.14
2018-06-21T02:50:50.453Z,95541.88
2018-06-21T02:53:21.896Z,95542.52
2018-06-21T02:55:52.837Z,95539.05
2018-06-21T02:58:24.415Z,95543.00
2018-06-21T03:00:54.921Z,95546.11
2018-06-21T03:03:25.922Z,95546.30
2018-06-21T03:05:56.808Z,95548.91
2018-06-21T03:08:27.283Z,95548.21
2018-06-21T03:11:01.788Z,95551.05
2018-06-21T03:13:32.305Z,95543.67
2018-06-21T03:16:04.330Z,95542.50
2018-06-21T03:18:35.289Z,95542.40
2018-06-21T03:21:05.675Z,95549.63
2018-06-21T03:23:36.687Z,95545.95
2018-06-21T03:26:07.798Z,95552.55
2018-06-21T03:28:38.755Z,95550.30
2018-06-21T03:31:09.473Z,95546.20
2018-06-21T03:33:41.468Z,95548.81
2018-06-21T03:36:12.481Z,95547.46
2018-06-21T03:38:44.650Z,95548.73
2018-06-21T03:41:15.378Z,95546.49
2018-06-21T03:43:47.376Z,95545.95
2018-06-21T03:46:18.517Z,95543.38
2018-06-21T03:48:49.246Z,95545.80
2018-06-21T03:51:19.918Z,95546.77
2018-06-21T03:53:51.211Z,95541.17
2018-06-21T03:56:22.451Z,95551.50
2018-06-21T03:58:53.312Z,95540.58
2018-06-21T04:01:24.664Z,95536.52
2018-06-21T04:03:55.742Z,95536.11
2018-06-21T04:06:27.131Z,95537.22
2018-06-21T04:08:58.243Z,95534.86
2018-06-21T04:11:28.941Z,95526.59
2018-06-21T04:13:59.480Z,95530.88
2018-06-21T04:16:30.152Z,95529.47
2018-06-21T04:19:01.933Z,95529.55
2018-06-21T04:21:32.691Z,95530.35
2018-06-21T04:24:03.889Z,95532.27
2018-06-21T04:26:34.764Z,95536.66
2018-06-21T04:29:06.656Z,95538.35
2018-06-21T04:31:37.585Z,95539.27
2018-06-21T04:34:08.358Z,95537.72
2018-06-21T04:36:40.022Z,95537.02
2018-06-21T04:39:11.338Z,95532.98
2018-06-21T04:41:42.602Z,95533.49
2018-06-21T04:44:14.238Z,95536.16
2018-06-21T04:46:45.335Z,95526.21
2018-06-21T04:49:18.612Z,95530.20
2018-06-21T04:51:50.512Z,95523.66
2018-06-21T04:54:21.625Z,95531.34
2018-06-21T04:56:52.856Z,95533.06
2018-06-21T04:59:23.616Z,95531.41
2018-06-21T05:01:54.909Z,95533.94
2018-06-21T05:04:25.457Z,95527.98
2018-06-21T05:06:56.516Z,95534.34
2018-06-21T05:09:27.004Z,95534.80
2018-06-21T05:11:57.793Z,95536.58
2018-06-21T05:14:29.671Z,95527.15
2018-06-21T05:17:01.074Z,95532.47
2018-06-21T05:19:32.351Z,95533.02
2018-06-21T05:22:03.604Z,95540.27
2018-06-21T05:24:34.735Z,95541.75
2018-06-21T05:27:05.152Z,95530.46
2018-06-21T05:29:36.153Z,95535.03
2018-06-21T05:32:07.417Z,95530.80
2018-06-21T05:34:38.465Z,95527.42
2018-06-21T05:37:09.525Z,95519.44
2018-06-21T05:39:40.392Z,95519.42
2018-06-21T05:42:11.711Z,95521.21
2018-06-21T05:44:42.629Z,95510.22
2018-06-21T05:47:13.408Z,95513.86
2018-06-21T05:49:44.051Z,95513.56
2018-06-21T05:52:15.042Z,95509.95
2018-06-21T05:54:49.042Z,95501.81
2018-06-21T05:57:19.482Z,95509.20
2018-06-21T05:59:51.503Z,95507.20
2018-06-21T06:02:22.430Z,95510.66
2018-06-21T06:04:53.386Z,95511.84
2018-06-21T06:07:24.876Z,95511.73
2018-06-21T06:09:56.055Z,95505.06
2018-06-21T06:12:26.638Z,95508.95
2018-06-21T06:14:58.007Z,95509.12
2018-06-21T06:17:29.229Z,95501.64
2018-06-21T06:20:01.842Z,95499.20
2018-06-21T06:22:32.650Z,95500.59
2018-06-21T06:25:04.234Z,95496.55
2018-06-21T06:27:36.612Z,95503.11
2018-06-21T06:30:09.005Z,95501.22
2018-06-21T06:32:40.776Z,95495.06
2018-06-21T06:35:12.715Z,95489.56
2018-06-21T06:37:43.375Z,95484.91
2018-06-21T06:40:14.106Z,95486.82
2018-06-21T06:42:46.269Z,95478.00
2018-06-21T06:45:17.827Z,95485.36
2018-06-21T06:47:49.596Z,95480.14
2018-06-21T06:50:20.536Z,95484.67
2018-06-21T06:52:51.169Z,95489.69
2018-06-21T06:55:22.081Z,95480.88
2018-06-21T06:57:52.870Z,95479.55
2018-06-21T07:00:23.849Z,95478.11
2018-06-21T07:02:55.123Z,95472.66
2018-06-21T07:05:26.298Z,95470.73
2018-06-21T07:07:56.995Z,95472.20
2018-06-21T07:10:27.992Z,95468.67
2018-06-21T07:12:59.542Z,95465.11
2018-06-21T07:15:30.974Z,95461.33
2018-06-21T07:18:03.104Z,95464.84
2018-06-21T07:20:34.492Z,95461.94
2018-06-21T07:23:05.505Z,95460.67
2018-06-21T07:25:37.118Z,95460.83
2018-06-21T07:28:09.392Z,95462.66
2018-06-21T07:30:46.193Z,95457.50
2018-06-21T07:33:18.874Z,95448.76
2018-06-21T07:35:51.201Z,95444.47
2018-06-21T07:38:21.999Z,95449.20
2018-06-21T07:40:54.197Z,95450.44
2018-06-21T07:43:25.755Z,95442.89
2018-06-21T07:45:57.008Z,95442.11
2018-06-21T07:48:28.682Z,95437.63
2018-06-21T07:51:01.230Z,95433.45
2018-06-21T07:53:32.242Z,95442.03
2018-06-21T07:56:04.403Z,95438.83
2018-06-21T07:58:35.096Z,95441.38
2018-06-21T08:01:06.269Z,95434.20
2018-06-21T08:03:37.208Z,95434.89
2018-06-21T08:06:08.081Z,95439.47
2018-06-21T08:08:39.985Z,95436.39
2018-06-21T08:11:10.962Z,95430.78
2018-06-21T08:13:42.293Z,95426.31
2018-06-21T08:16:13.499Z,95427.58
2018-06-21T08:18:45.502Z,95426.59
2018-06-21T08:21:17.453Z,95430.16
2018-06-21T08:23:48.599Z,95423.78
2018-06-21T08:26:19.603Z,95429.95
2018-06-21T08:28:50.421Z,95424.77
2018-06-21T08:31:21.534Z,95416.51
2018-06-21T08:33:52.994Z,95412.86
2018-06-21T08:36:23.856Z,95409.11
2018-06-21T08:38:54.581Z,95411.99
2018-06-21T08:41:26.782Z,95410.27
2018-06-21T08:43:59.316Z,95400.34
2018-06-21T08:46:33.829Z,95390.17
2018-06-21T08:49:06.106Z,95402.02
2018-06-21T08:51:38.293Z,95399.31
2018-06-21T08:54:10.078Z,95395.46
2018-06-21T08:56:41.290Z,95389.73
2018-06-21T08:59:12.319Z,95391.05
2018-06-21T09:01:43.297Z,95383.25
2018-06-21T09:04:14.271Z,95391.98
2018-06-21T09:06:45.242Z,95388.94
2018-06-21T09:09:16.424Z,95388.33
2018-06-21T09:11:47.884Z,95382.12
2018-06-21T09:14:20.765Z,95378.11
2018-06-21T09:16:52.689Z,95375.92
2018-06-21T09:19:24.752Z,95375.00
2018-06-21T09:21:56.010Z,95360.86
2018-06-21T09:24:27.465Z,95361.12
2018-06-21T09:26:59.616Z,95358.98
2018-06-21T09:29:30.363Z,95356.02
2018-06-21T09:32:02.323Z,95352.89
2018-06-21T09:34:33.783Z,95343.18
2018-06-21T09:37:05.101Z,95337.36
2018-06-21T09:39:43.150Z,95333.37
2018-06-21T09:42:19.940Z,95319.18
2018-06-21T09:44:56.355Z,95321.37
2018-06-21T09:47:32.718Z,95316.77
2018-06-21T09:50:04.915Z,95326.80
2018-06-21T09:52:36.134Z,95321.27
2018-06-21T09:55:07.743Z,95311.36
2018-06-21T09:57:39.186Z,95315.65
2018-06-21T10:00:12.784Z,95314.83
2018-06-21T10:02:43.593Z,95312.00
2018-06-21T10:05:15.091Z,95307.91
2018-06-21T10:07:46.759Z,95298.61
2018-06-21T10:10:25.278Z,95293.57
2018-06-21T10:12:56.792Z,95293.38
2018-06-21T10:15:29.737Z,95296.80
2018-06-21T10:18:06.508Z,95301.49
2018-06-21T10:20:38.550Z,95296.32
2018-06-21T10:23:09.902Z,95303.09
2018-06-21T10:25:40.822Z,95311.66
2018-06-21T10:28:12.721Z,95309.09
2018-06-21T10:30:43.826Z,95303.56
2018-06-21T10:33:15.053Z,95300.22
2018-06-21T10:35:46.205Z,95298.46
2018-06-21T10:38:17.452Z,95300.55
2018-06-21T10:40:56.926Z,95297.61
2018-06-21T10:43:28.573Z,95294.34
2018-06-21T10:46:01.432Z,95294.34
2018-06-21T10:48:36.238Z,95287.35
2018-06-21T10:51:07.672Z,95281.14
2018-06-21T10:53:40.305Z,95275.30
2018-06-21T10:56:11.654Z,95268.42
2018-06-21T10:58:43.774Z,95266.08
2018-06-21T11:01:16.932Z,95263.45
2018-06-21T11:03:48.458Z,95264.40
2018-06-21T11:06:20.113Z,95262.49
2018-06-21T11:08:51.405Z,95264.27
2018-06-21T11:11:24.174Z,95269.95
2018-06-21T11:13:54.576Z,95273.58
2018-06-21T11:16:26.584Z,95273.20
2018-06-21T11:18:58.883Z,95262.80
2018-06-21T11:21:30.127Z,95277.79
2018-06-21T11:24:04.453Z,95287.22
2018-06-21T11:26:37.432Z,95277.24
2018-06-21T11:29:08.701Z,95293.06
2018-06-21T11:31:40.029Z,95290.77
2018-06-21T11:34:11.745Z,95289.58
2018-06-21T11:36:44.017Z,95279.62
2018-06-21T11:39:15.227Z,95279.42
2018-06-21T11:41:49.838Z,95274.51
2018-06-21T11:44:21.427Z,95262.45
2018-06-21T11:46:54.166Z,95253.17
2018-06-21T11:49:26.050Z,95242.58
2018-06-21T11:51:58.216Z,95230.80
2018-06-21T11:54:30.773Z,95229.31
2018-06-21T11:57:03.050Z,95238.95
2018-06-21T11:59:34.145Z,95238.77
2018-06-21T12:02:05.414Z,95247.69
2018-06-21T12:04:36.875Z,95258.02
2018-06-21T12:07:07.984Z,95250.83
2018-06-21T12:09:38.652Z,95251.33
2018-06-21T12:12:09.294Z,95254.01
2018-06-21T12:14:41.877Z,95239.55
2018-06-21T12:17:13.001Z,95233.70
2018-06-21T12:19:45.208Z,95227.80
2018-06-21T12:22:18.065Z,95227.34
2018-06-21T12:24:49.441Z,95226.45
2018-06-21T12:27:20.153Z,95228.67
2018-06-21T12:29:53.181Z,95224.88
2018-06-21T12:32:24.215Z,95231.63
2018-06-21T12:34:57.019Z,95229.72
2018-06-21T12:37:32.120Z,95232.66
2018-06-21T12:40:06.598Z,95231.88
2018-06-21T12:42:37.968Z,95229.61
2018-06-21T12:45:09.987Z,95223.79
2018-06-21T12:47:42.863Z,95227.01
2018-06-21T12:50:14.371Z,95218.98
2018-06-21T12:52:46.993Z,95223.97
2018-06-21T12:55:18.080Z,95224.02
2018-06-21T12:57:53.040Z,95220.50
2018-06-21T13:00:25.283Z,95213.80
2018-06-21T13:02:57.768Z,95209.84
2018-06-21T13:05:28.655Z,95199.68
2018-06-21T13:08:02.740Z,95196.23
2018-06-21T13:10:44.602Z,95194.48
2018-06-21T13:13:18.616Z,95190.46
2018-06-21T13:15:49.779Z,95187.73
2018-06-21T13:18:21.421Z,95184.82
2018-06-21T13:20:52.567Z,95181.89
2018-06-21T13:23:23.793Z,95182.38
2018-06-21T13:25:56.272Z,95172.72
2018-06-21T13:28:27.851Z,95169.20
2018-06-21T13:31:01.009Z,95174.55
2018-06-21T13:33:32.083Z,95167.84
2018-06-21T13:36:04.348Z,95159.17
2018-06-21T13:38:35.645Z,95157.94
2018-06-21T13:41:06.999Z,95164.95
2018-06-21T13:43:37.968Z,95168.77
2018-06-21T13:46:09.514Z,95175.20
2018-06-21T13:48:41.329Z,95186.44
2018-06-21T13:51:12.648Z,95179.70
2018-06-21T13:53:44.468Z,95181.23
2018-06-21T13:56:16.588Z,95179.10
2018-06-21T13:58:50.600Z,95180.93
2018-06-21T14:01:21.899Z,95164.48
2018-06-21T14:03:54.379Z,95161.92
2018-06-21T14:06:25.797Z,95156.23
2018-06-21T14:08:57.958Z,95153.34
2018-06-21T14:11:29.887Z,95154.30
2018-06-21T14:14:02.709Z,95152.43
2018-06-21T14:16:35.429Z,95140.98
2018-06-21T14:19:08.824Z,95143.67
2018-06-21T14:21:40.296Z,95142.42
2018-06-21T14:24:15.212Z,95144.88
2018-06-21T14:26:46.694Z,95144.78
2018-06-21T14:29:17.157Z,95145.45
2018-06-21T14:31:48.086Z,95141.26
2018-06-21T14:34:19.672Z,95139.25
2018-06-21T14:36:50.921Z,95146.22
2018-06-21T14:39:21.882Z,95148.31
2018-06-21T14:41:52.637Z,95154.41
2018-06-21T14:44:25.445Z,95157.37
2018-06-21T14:46:57.320Z,95156.83
2018-06-21T14:49:28.347Z,95154.09
2018-06-21T14:52:00.124Z,95156.02
2018-06-21T14:54:32.031Z,95154.95
2018-06-21T14:57:04.432Z,95155.97
2018-06-21T14:59:35.725Z,95163.25
2018-06-21T15:02:08.156Z,95166.73
2018-06-21T15:04:39.823Z,95174.70
2018-06-21T15:07:11.018Z,95168.02
2018-06-21T15:09:42.815Z,95176.32
2018-06-21T15:12:15.221Z,95168.27
2018-06-21T15:14:47.700Z,95161.09
2018-06-21T15:17:19.071Z,95163.66
2018-06-21T15:19:50.593Z,95154.01
2018-06-21T15:22:22.534Z,95143.59
2018-06-21T15:24:54.319Z,95150.27
2018-06-21T15:27:25.265Z,95145.94
2018-06-21T15:29:56.472Z,95135.98
2018-06-21T15:32:27.701Z,95126.45
2018-06-21T15:35:00.296Z,95115.31
2018-06-21T15:37:31.455Z,95106.56
2018-06-21T15:40:02.851Z,95102.48
2018-06-21T15:42:34.864Z,95098.80
2018-06-21T15:45:07.404Z,95092.33
2018-06-21T15:47:39.258Z,95088.99
2018-06-21T15:50:10.221Z,95084.97
2018-06-21T15:52:41.853Z,95077.66
2018-06-21T15:55:13.046Z,95079.13
2018-06-21T15:57:45.013Z,95081.14
2018-06-21T16:00:16.565Z,95093.13
2018-06-21T16:02:49.201Z,95099.30
2018-06-21T16:05:21.697Z,95101.31
2018-06-21T16:07:53.469Z,95106.17
2018-06-21T16:10:24.501Z,95111.46
2018-06-21T16:12:55.604Z,95114.93
2018-06-21T16:15:27.241Z,95115.95
2018-06-21T16:17:58.400Z,95119.30
2018-06-21T16:20:30.958Z,95127.86
2018-06-21T16:23:04.033Z,95141.34
2018-06-21T16:25:35.160Z,95147.36
2018-06-21T16:28:06.742Z,95162.27
2018-06-21T16:30:39.728Z,95163.96
2018-06-21T16:33:12.135Z,95168.02
2018-06-21T16:35:44.066Z,95171.33
2018-06-21T16:38:16.110Z,95175.97
2018-06-21T16:40:47.241Z,95177.07
2018-06-21T16:43:19.512Z,95174.73
2018-06-21T16:45:52.536Z,95181.25
2018-06-21T16:48:24.669Z,95184.12
2018-06-21T16:50:55.916Z,95179.83
2018-06-21T16:53:27.117Z,95181.98
2018-06-21T16:55:58.400Z,95181.98
2018-06-21T16:58:30.857Z,95179.80
2018-06-21T17:01:02.954Z,95185.53
2018-06-21T17:03:34.084Z,95183.50
2018-06-21T17:06:05.737Z,95177.25
2018-06-21T17:08:38.247Z,95175.80
2018-06-21T17:11:08.972Z,95175.30
2018-06-21T17:13:40.180Z,95168.45
2018-06-21T17:16:11.133Z,95167.00
2018-06-21T17:18:42.722Z,95165.86
2018-06-21T17:21:14.205Z,95157.86
2018-06-21T17:23:46.997Z,95163.03
2018-06-21T17:26:18.663Z,95166.23
2018-06-21T17:28:50.454Z,95170.02
2018-06-21T17:31:21.599Z,95165.42
2018-06-21T17:33:53.446Z,95162.11
2018-06-21T17:36:24.584Z,95160.60
2018-06-21T17:38:56.899Z,95161.36
2018-06-21T17:41:28.109Z,95163.59
2018-06-21T17:44:00.917Z,95164.94
2018-06-21T17:46:32.816Z,95148.73
2018-06-21T17:49:06.328Z,95142.15
2018-06-21T17:51:39.089Z,95146.68
2018-06-21T17:54:17.621Z,95143.02
2018-06-21T17:56:49.182Z,95145.14
2018-06-21T17:59:20.718Z,95141.31
2018-06-21T18:01:52.661Z,95136.27
2018-06-21T18:04:24.175Z,95136.54
2018-06-21T18:06:55.876Z,95134.21
2018-06-21T18:09:28.862Z,95140.27
2018-06-21T18:11:59.522Z,95137.50
2018-06-21T18:14:32.390Z,95140.23
2018-06-21T18:17:05.901Z,95135.89
2018-06-21T18:19:36.739Z,95132.41
2018-06-21T18:22:09.587Z,95133.41
2018-06-21T18:24:41.139Z,95133.38
2018-06-21T18:27:13.131Z,95133.72
2018-06-21T18:29:44.925Z,95134.95
2018-06-21T18:32:16.026Z,95137.28
2018-06-21T18:34:48.049Z,95133.80
2018-06-21T18:37:19.226Z,95136.47
2018-06-21T18:39:50.287Z,95140.34
2018-06-21T18:42:21.841Z,95142.34
2018-06-21T18:44:56.606Z,95142.80
2018-06-21T18:47:28.003Z,95152.73
2018-06-21T18:50:00.130Z,95156.86
2018-06-21T18:52:34.456Z,95162.30
2018-06-21T18:55:07.860Z,95165.80
2018-06-21T18:57:38.691Z,95170.67
2018-06-21T19:00:11.111Z,95171.23
2018-06-21T19:02:42.459Z,95165.96
2018-06-21T19:05:13.469Z,95169.91
2018-06-21T19:07:45.661Z,95169.16
2018-06-21T19:10:21.954Z,95169.91
2018-06-21T19:12:54.708Z,95176.39
2018-06-21T19:15:26.267Z,95180.14
2018-06-21T19:17:56.978Z,95190.02
2018-06-21T19:20:28.020Z,95194.56
2018-06-21T19:22:59.771Z,95189.45
2018-06-21T19:25:35.075Z,95186.34
2018-06-21T19:28:06.365Z,95188.30
2018-06-21T19:30:37.053Z,95183.89
2018-06-21T19:33:08.262Z,95194.14
2018-06-21T19:35:40.314Z,95186.41
2018-06-21T19:38:11.439Z,95180.68
2018-06-21T19:40:44.752Z,95183.67
2018-06-21T19:43:23.714Z,95188.52
2018-06-21T19:45:57.033Z,95184.87
2018-06-21T19:48:43.338Z,95190.02
2018-06-21T19:51:25.186Z,95188.24
2018-06-21T19:54:03.580Z,95190.34
2018-06-21T19:56:37.537Z,95191.24
2018-06-21T19:59:13.086Z,95188.58
2018-06-21T20:01:48.015Z,95193.03
2018-06-21T20:04:20.294Z,95189.97
2018-06-21T20:06:51.669Z,95185.33
2018-06-21T20:09:22.859Z,95189.91
2018-06-21T20:11:55.590Z,95191.23
2018-06-21T20:14:27.610Z,95181.06
2018-06-21T20:17:01.377Z,95183.94
2018-06-21T20:20:36.361Z,95177.75
2018-06-21T20:23:09.146Z,95172.44
2018-06-21T20:25:40.886Z,95178.53
2018-06-21T20:28:15.088Z,95176.76
2018-06-21T20:30:52.283Z,95174.99
2018-06-21T20:33:26.020Z,95171.23
2018-06-21T20:36:00.171Z,95172.85
2018-06-21T20:38:32.047Z,95172.85
2018-06-21T20:41:04.135Z,95173.05
2018-06-21T20:43:36.457Z,95170.14
2018-06-21T20:46:11.936Z,95165.83
2018-06-21T20:48:43.907Z,95164.33
2018-06-21T20:51:17.881Z,95161.14
2018-06-21T20:53:49.134Z,95159.92
2018-06-21T20:56:22.185Z,95160.08
2018-06-21T20:58:54.598Z,95169.55
2018-06-21T21:01:28.003Z,95166.92
2018-06-21T21:04:00.264Z,95164.70
2018-06-21T21:06:33.229Z,95159.33
2018-06-21T21:09:08.655Z,95159.53
2018-06-21T21:11:42.936Z,95155.44
2018-06-21T21:14:14.670Z,95152.94
2018-06-21T21:16:51.622Z,95144.88
2018-06-21T21:19:24.844Z,95147.72
2018-06-21T21:22:00.222Z,95147.92
2018-06-21T21:24:33.197Z,95138.41
2018-06-21T21:27:07.114Z,95145.13
2018-06-21T21:29:39.856Z,95143.10
2018-06-21T21:32:14.876Z,95139.34
2018-06-21T21:34:50.258Z,95137.23
2018-06-21T21:37:26.254Z,95133.78
2018-06-21T21:40:03.982Z,95138.53
2018-06-21T21:42:38.694Z,95136.16
2018-06-21T21:45:12.516Z,95139.39
2018-06-21T21:47:49.218Z,95135.20
2018-06-21T21:50:23.867Z,95135.40
2018-06-21T21:52:57.857Z,95142.57
2018-06-21T21:55:31.167Z,95139.57
2018-06-21T21:58:08.440Z,95137.73
2018-06-21T22:00:51.658Z,95141.06
2018-06-21T22:03:24.457Z,95136.70
2018-06-21T22:05:57.470Z,95136.36
2018-06-21T22:08:35.698Z,95131.34
2018-06-21T22:11:12.533Z,95127.18
2018-06-21T22:13:47.964Z,95120.94
2018-06-21T22:16:25.384Z,95119.96
2018-06-21T22:19:00.294Z,95111.93
2018-06-21T22:21:35.648Z,95116.12
2018-06-21T22:24:09.591Z,95115.08
2018-06-21T22:26:43.395Z,95106.53
2018-06-21T22:29:16.234Z,95105.81
2018-06-21T22:31:50.862Z,95108.04
2018-06-21T22:34:28.153Z,95103.47
2018-06-21T22:37:01.227Z,95105.53
2018-06-21T22:39:37.958Z,95104.05
2018-06-21T22:42:13.099Z,95103.82
2018-06-21T22:44:48.239Z,95097.32
2018-06-21T22:47:26.332Z,95098.13
2018-06-21T22:50:01.270Z,95097.12
2018-06-21T22:52:37.686Z,95099.03
2018-06-21T22:55:13.708Z,95101.25
2018-06-21T22:57:47.755Z,95102.30
2018-06-21T23:00:23.154Z,95103.47
2018-06-21T23:02:58.542Z,95105.69
2018-06-21T23:05:34.261Z,95100.45
2018-06-21T23:08:09.798Z,95093.45
2018-06-21T23:10:46.016Z,95099.84
2018-06-21T23:13:24.904Z,95101.12
2018-06-21T23:16:03.384Z,95105.53
2018-06-21T23:18:54.495Z,95101.47
2018-06-21T23:21:29.388Z,95099.92
2018-06-21T23:24:04.414Z,95103.02
2018-06-21T23:26:38.715Z,95098.16
2018-06-21T23:29:18.280Z,95094.98
2018-06-21T23:31:52.596Z,95095.28
2018-06-21T23:34:29.738Z,95093.29
2018-06-21T23:37:05.366Z,95098.83
2018-06-21T23:39:40.198Z,95097.21
2018-06-21T23:42:15.262Z,95085.92
2018-06-21T23:44:59.463Z,95083.70
2018-06-21T23:47:37.741Z,95082.66
2018-06-21T23:50:15.010Z,95081.04
2018-06-21T23:52:49.515Z,95072.02
2018-06-21T23:55:22.366Z,95082.30
2018-06-21T23:57:57.172Z,95083.16
